createdAt,value
2017-08-08T00:00:29.015Z,0.0
2017-08-08T00:01:10.146Z,0.0
2017-08-08T00:01:51.178Z,0.0
2017-08-08T00:02:32.305Z,0.0
2017-08-08T00:03:13.534Z,0.0
2017-08-08T00:03:54.759Z,0.0
2017-08-08T00:04:35.898Z,0.0
2017-08-08T00:05:17.021Z,0.0
2017-08-08T00:05:58.153Z,0.0
2017-08-08T00:06:39.302Z,0.0
2017-08-08T00:07:20.531Z,0.0
2017-08-08T00:08:01.664Z,0.0
2017-08-08T00:08:42.801Z,0.0
2017-08-08T00:09:24.043Z,0.0
2017-08-08T00:10:05.276Z,0.0
2017-08-08T00:10:46.501Z,0.0
2017-08-08T00:11:27.627Z,0.0
2017-08-08T00:12:08.758Z,0.0
2017-08-08T00:12:49.787Z,0.0
2017-08-08T00:13:30.718Z,0.0
2017-08-08T00:14:11.753Z,0.0
2017-08-08T00:14:52.980Z,0.0
2017-08-08T00:15:34.111Z,0.0
2017-08-08T00:16:15.140Z,0.0
2017-08-08T00:16:56.172Z,0.0
2017-08-08T00:17:37.406Z,0.0
2017-08-08T00:18:18.537Z,0.0
2017-08-08T00:18:59.665Z,0.0
2017-08-08T00:19:40.799Z,0.0
2017-08-08T00:20:22.124Z,0.0
2017-08-08T00:21:03.258Z,0.0
2017-08-08T00:21:44.384Z,0.0
2017-08-08T00:22:25.611Z,0.0
2017-08-08T00:23:06.756Z,0.0
2017-08-08T00:23:47.963Z,0.0
2017-08-08T00:24:29.496Z,0.0
2017-08-08T00:25:10.728Z,0.0
2017-08-08T00:25:52.057Z,0.0
2017-08-08T00:26:32.878Z,0.0
2017-08-08T00:27:14.108Z,0.0
2017-08-08T00:27:55.338Z,0.0
2017-08-08T00:28:36.568Z,0.0
2017-08-08T00:29:17.899Z,0.0
2017-08-08T00:29:59.129Z,0.0
2017-08-08T00:30:40.265Z,0.0
2017-08-08T00:31:21.395Z,0.0
2017-08-08T00:32:02.721Z,0.0
2017-08-08T00:32:44.046Z,0.0
2017-08-08T00:33:25.378Z,0.0
2017-08-08T00:34:06.503Z,0.0
2017-08-08T00:34:47.644Z,0.0
2017-08-08T00:35:28.865Z,0.0
2017-08-08T00:36:09.895Z,0.0
2017-08-08T00:36:51.127Z,0.0
2017-08-08T00:37:32.355Z,0.0
2017-08-08T00:38:13.686Z,0.0
2017-08-08T00:38:54.711Z,0.0
2017-08-08T00:39:35.840Z,0.0
2017-08-08T00:40:17.068Z,0.0
2017-08-08T00:40:58.205Z,0.0
2017-08-08T00:41:39.341Z,0.0
2017-08-08T00:42:20.388Z,0.0
2017-08-08T00:43:01.730Z,0.0
2017-08-08T00:43:42.854Z,0.0
2017-08-08T00:44:23.983Z,0.0
2017-08-08T00:45:05.310Z,0.0
2017-08-08T00:45:46.540Z,0.0
2017-08-08T00:46:27.768Z,0.0
2017-08-08T00:47:08.905Z,0.0
2017-08-08T00:47:50.141Z,0.0
2017-08-08T00:48:31.364Z,0.3
2017-08-08T00:49:12.500Z,0.7
2017-08-08T00:49:53.622Z,0.0
2017-08-08T00:50:34.556Z,0.0
2017-08-08T00:51:15.791Z,0.0
2017-08-08T00:51:56.924Z,0.0
2017-08-08T00:52:38.055Z,0.0
2017-08-08T00:53:19.183Z,0.0
2017-08-08T00:54:00.327Z,0.0
2017-08-08T00:54:42.452Z,0.0
2017-08-08T00:55:23.579Z,0.0
2017-08-08T00:56:04.603Z,0.0
2017-08-08T00:56:45.725Z,0.0
2017-08-08T00:57:26.960Z,0.0
2017-08-08T00:58:07.988Z,0.0
2017-08-08T00:58:49.018Z,0.0
2017-08-08T00:59:29.946Z,0.0
2017-08-08T01:00:10.977Z,0.0
2017-08-08T01:00:52.215Z,0.0
2017-08-08T01:01:33.335Z,0.0
2017-08-08T01:02:14.471Z,0.0
2017-08-08T01:02:55.694Z,0.0
2017-08-08T01:03:36.835Z,0.0
2017-08-08T01:04:18.058Z,0.0
2017-08-08T01:05:01.941Z,0.0
2017-08-08T01:05:43.726Z,0.0
2017-08-08T01:06:24.712Z,0.0
2017-08-08T01:07:05.899Z,0.0
2017-08-08T01:07:46.981Z,0.0
2017-08-08T01:08:27.981Z,0.0
2017-08-08T01:09:08.969Z,0.0
2017-08-08T01:09:50.051Z,0.0
2017-08-08T01:10:30.929Z,0.0
2017-08-08T01:11:12.017Z,0.0
2017-08-08T01:11:53.110Z,0.0
2017-08-08T01:12:33.992Z,0.0
2017-08-08T01:13:15.082Z,0.0
2017-08-08T01:13:56.175Z,0.0
2017-08-08T01:14:37.358Z,0.0
2017-08-08T01:15:18.341Z,0.0
2017-08-08T01:15:59.324Z,0.0
2017-08-08T01:16:40.417Z,0.0
2017-08-08T01:17:21.301Z,0.0
2017-08-08T01:18:02.304Z,1.0
2017-08-08T01:18:43.192Z,1.1
2017-08-08T01:19:24.182Z,1.6
2017-08-08T01:20:05.272Z,0.0
2017-08-08T01:20:46.448Z,0.0
2017-08-08T01:21:27.331Z,0.0
2017-08-08T01:22:08.316Z,0.7
2017-08-08T01:22:49.409Z,0.0
2017-08-08T01:23:30.389Z,0.0
2017-08-08T01:24:11.476Z,0.0
2017-08-08T01:24:52.564Z,0.0
2017-08-08T01:25:33.855Z,0.2
2017-08-08T01:26:14.948Z,0.2
2017-08-08T01:26:56.037Z,0.0
2017-08-08T01:27:37.038Z,0.5
2017-08-08T01:28:18.014Z,0.0
2017-08-08T01:28:59.306Z,0.0
2017-08-08T01:29:40.298Z,0.0
2017-08-08T01:30:21.487Z,0.2
2017-08-08T01:31:02.479Z,0.0
2017-08-08T01:31:43.762Z,0.0
2017-08-08T01:32:24.854Z,0.0
2017-08-08T01:33:05.837Z,0.0
2017-08-08T01:33:46.818Z,0.0
2017-08-08T01:34:27.707Z,0.0
2017-08-08T01:35:08.793Z,0.0
2017-08-08T01:35:49.681Z,0.0
2017-08-08T01:36:30.759Z,0.0
2017-08-08T01:37:11.755Z,0.0
2017-08-08T01:37:52.740Z,0.5
2017-08-08T01:38:33.728Z,0.3
2017-08-08T01:39:14.617Z,0.9
2017-08-08T01:39:55.807Z,0.3
2017-08-08T01:40:36.894Z,0.1
2017-08-08T01:41:17.973Z,0.1
2017-08-08T01:41:58.859Z,1.8
2017-08-08T01:42:39.944Z,1.5
2017-08-08T01:43:21.337Z,0.3
2017-08-08T01:44:02.523Z,0.0
2017-08-08T01:44:43.610Z,0.4
2017-08-08T01:45:24.598Z,0.6
2017-08-08T01:46:05.573Z,0.6
2017-08-08T01:46:46.462Z,0.9
2017-08-08T01:47:27.543Z,1.5
2017-08-08T01:48:08.533Z,1.8
2017-08-08T01:48:49.519Z,0.3
2017-08-08T01:49:30.406Z,1.9
2017-08-08T01:50:11.398Z,0.4
2017-08-08T01:50:52.380Z,0.1
2017-08-08T01:51:33.669Z,0.2
2017-08-08T01:52:14.753Z,0.8
2017-08-08T01:52:55.735Z,0.2
2017-08-08T01:53:36.824Z,0.0
2017-08-08T01:54:17.808Z,0.0
2017-08-08T01:54:58.899Z,0.9
2017-08-08T01:55:39.786Z,0.1
2017-08-08T01:56:20.779Z,0.7
2017-08-08T01:57:02.062Z,0.1
2017-08-08T01:57:43.052Z,0.0
2017-08-08T01:58:24.156Z,1.0
2017-08-08T01:59:05.243Z,0.6
2017-08-08T01:59:46.132Z,1.1
2017-08-08T02:00:27.418Z,0.0
2017-08-08T02:01:08.507Z,0.0
2017-08-08T02:01:49.491Z,0.3
2017-08-08T02:02:30.574Z,0.3
2017-08-08T02:03:11.460Z,0.2
2017-08-08T02:03:52.443Z,0.7
2017-08-08T02:04:33.528Z,0.6
2017-08-08T02:05:14.633Z,0.0
2017-08-08T02:05:55.729Z,0.0
2017-08-08T02:06:36.811Z,1.3
2017-08-08T02:07:17.791Z,1.1
2017-08-08T02:07:58.774Z,1.0
2017-08-08T02:08:39.762Z,0.9
2017-08-08T02:09:21.180Z,1.3
2017-08-08T02:10:02.164Z,1.1
2017-08-08T02:10:43.251Z,0.2
2017-08-08T02:11:24.532Z,1.5
2017-08-08T02:12:05.618Z,2.2
2017-08-08T02:12:46.603Z,1.0
2017-08-08T02:13:27.684Z,2.2
2017-08-08T02:14:08.877Z,1.0
2017-08-08T02:14:49.960Z,1.1
2017-08-08T02:15:31.143Z,2.2
2017-08-08T02:16:12.129Z,0.1
2017-08-08T02:16:53.117Z,0.2
2017-08-08T02:17:34.204Z,0.1
2017-08-08T02:18:15.290Z,0.0
2017-08-08T02:18:56.378Z,0.0
2017-08-08T02:19:37.252Z,0.0
2017-08-08T02:20:18.440Z,0.0
2017-08-08T02:20:59.523Z,0.0
2017-08-08T02:21:40.506Z,1.0
2017-08-08T02:22:21.517Z,1.5
2017-08-08T02:23:02.399Z,0.6
2017-08-08T02:23:43.491Z,0.1
2017-08-08T02:24:24.580Z,0.2
2017-08-08T02:25:05.566Z,0.4
2017-08-08T02:25:46.757Z,1.0
2017-08-08T02:26:27.860Z,1.6
2017-08-08T02:27:09.146Z,0.1
2017-08-08T02:27:50.131Z,0.0
2017-08-08T02:28:31.016Z,0.0
2017-08-08T02:29:11.904Z,0.4
2017-08-08T02:29:52.987Z,0.5
2017-08-08T02:30:33.867Z,0.2
2017-08-08T02:31:14.848Z,1.0
2017-08-08T02:31:55.837Z,0.0
2017-08-08T02:32:37.016Z,0.0
2017-08-08T02:33:18.199Z,0.0
2017-08-08T02:33:59.183Z,0.0
2017-08-08T02:34:40.383Z,0.1
2017-08-08T02:35:22.058Z,0.4
2017-08-08T02:36:03.046Z,0.0
2017-08-08T02:36:44.228Z,1.7
2017-08-08T02:37:25.212Z,0.2
2017-08-08T02:38:06.506Z,0.0
2017-08-08T02:38:47.488Z,0.5
2017-08-08T02:39:28.576Z,1.0
2017-08-08T02:40:09.363Z,0.0
2017-08-08T02:40:50.444Z,0.2
2017-08-08T02:41:31.538Z,0.0
2017-08-08T02:42:12.514Z,0.0
2017-08-08T02:42:53.509Z,0.0
2017-08-08T02:43:34.392Z,0.0
2017-08-08T02:44:15.379Z,0.0
2017-08-08T02:44:56.474Z,0.0
2017-08-08T02:45:37.459Z,0.0
2017-08-08T02:46:18.450Z,0.0
2017-08-08T02:46:59.532Z,0.0
2017-08-08T02:47:40.718Z,0.0
2017-08-08T02:48:21.705Z,0.0
2017-08-08T02:49:02.700Z,0.9
2017-08-08T02:49:43.588Z,0.9
2017-08-08T02:50:24.481Z,0.3
2017-08-08T02:51:05.570Z,0.6
2017-08-08T02:51:46.450Z,0.0
2017-08-08T02:52:27.431Z,0.0
2017-08-08T02:53:09.027Z,0.0
2017-08-08T02:53:50.019Z,0.0
2017-08-08T02:54:31.004Z,0.0
2017-08-08T02:55:12.087Z,0.0
2017-08-08T02:55:53.075Z,0.0
2017-08-08T02:56:34.263Z,0.0
2017-08-08T02:57:15.449Z,0.5
2017-08-08T02:57:56.530Z,0.2
2017-08-08T02:58:37.517Z,0.0
2017-08-08T02:59:18.599Z,0.0
2017-08-08T02:59:59.682Z,0.0
2017-08-08T03:00:40.661Z,0.0
2017-08-08T03:01:22.059Z,0.0
2017-08-08T03:02:03.248Z,0.0
2017-08-08T03:02:44.333Z,0.0
2017-08-08T03:03:25.522Z,0.0
2017-08-08T03:04:06.312Z,0.0
2017-08-08T03:04:47.193Z,0.0
2017-08-08T03:05:28.378Z,0.3
2017-08-08T03:06:09.360Z,0.0
2017-08-08T03:06:50.254Z,0.0
2017-08-08T03:07:31.236Z,0.0
2017-08-08T03:08:12.224Z,0.0
2017-08-08T03:08:53.208Z,0.0
2017-08-08T03:09:34.492Z,0.0
2017-08-08T03:10:15.481Z,0.0
2017-08-08T03:10:56.370Z,0.0
2017-08-08T03:11:37.263Z,0.0
2017-08-08T03:12:18.145Z,0.0
2017-08-08T03:12:59.143Z,0.0
2017-08-08T03:13:40.133Z,0.0
2017-08-08T03:14:21.317Z,0.0
2017-08-08T03:15:02.404Z,0.0
2017-08-08T03:15:43.386Z,0.0
2017-08-08T03:16:24.481Z,0.0
2017-08-08T03:17:05.659Z,0.0
2017-08-08T03:17:46.539Z,0.0
2017-08-08T03:18:27.521Z,0.0
2017-08-08T03:19:08.406Z,0.0
2017-08-08T03:19:49.390Z,0.0
2017-08-08T03:20:30.272Z,0.0
2017-08-08T03:21:11.260Z,0.0
2017-08-08T03:21:52.247Z,0.0
2017-08-08T03:22:33.127Z,0.0
2017-08-08T03:23:14.109Z,0.0
2017-08-08T03:23:55.197Z,0.0
2017-08-08T03:24:36.182Z,0.0
2017-08-08T03:25:17.362Z,0.0
2017-08-08T03:25:58.677Z,0.0
2017-08-08T03:26:39.438Z,0.0
2017-08-08T03:27:20.320Z,0.0
2017-08-08T03:28:01.320Z,0.0
2017-08-08T03:28:42.201Z,0.0
2017-08-08T03:29:23.298Z,0.0
2017-08-08T03:30:04.283Z,0.0
2017-08-08T03:30:45.276Z,0.0
2017-08-08T03:31:26.254Z,0.0
2017-08-08T03:32:07.138Z,0.1
2017-08-08T03:32:48.227Z,0.0
2017-08-08T03:33:29.316Z,0.0
2017-08-08T03:34:10.469Z,1.0
2017-08-08T03:34:51.656Z,0.1
2017-08-08T03:35:32.845Z,0.1
2017-08-08T03:36:14.031Z,0.0
2017-08-08T03:36:54.917Z,0.0
2017-08-08T03:37:35.800Z,0.0
2017-08-08T03:38:16.882Z,0.0
2017-08-08T03:38:57.771Z,0.0
2017-08-08T03:39:38.861Z,0.0
2017-08-08T03:40:19.958Z,0.0
2017-08-08T03:41:00.943Z,0.0
2017-08-08T03:41:42.237Z,0.0
2017-08-08T03:42:23.429Z,0.0
2017-08-08T03:43:04.517Z,0.0
2017-08-08T03:43:45.502Z,0.5
2017-08-08T03:44:26.585Z,0.6
2017-08-08T03:45:07.674Z,0.0
2017-08-08T03:45:48.765Z,0.0
2017-08-08T03:46:29.856Z,0.5
2017-08-08T03:47:10.746Z,1.0
2017-08-08T03:47:51.842Z,0.0
2017-08-08T03:48:33.031Z,1.4
2017-08-08T03:49:14.218Z,1.3
2017-08-08T03:49:55.417Z,0.1
2017-08-08T03:50:36.500Z,0.9
2017-08-08T03:51:17.384Z,1.8
2017-08-08T03:51:58.370Z,1.0
2017-08-08T03:52:39.358Z,0.5
2017-08-08T03:53:20.445Z,1.0
2017-08-08T03:54:01.432Z,0.9
2017-08-08T03:54:42.431Z,0.4
2017-08-08T03:55:23.522Z,1.1
2017-08-08T03:56:04.518Z,0.2
2017-08-08T03:56:45.700Z,1.1
2017-08-08T03:57:26.891Z,1.0
2017-08-08T03:58:07.685Z,0.0
2017-08-08T03:58:48.865Z,1.4
2017-08-08T03:59:29.859Z,1.6
2017-08-08T04:00:10.950Z,2.8
2017-08-08T04:00:51.936Z,1.4
2017-08-08T04:01:33.022Z,1.1
2017-08-08T04:02:14.005Z,1.7
2017-08-08T04:02:54.996Z,1.4
2017-08-08T04:03:35.881Z,0.1
2017-08-08T04:04:16.871Z,0.2
2017-08-08T04:04:57.949Z,2.7
2017-08-08T04:05:39.139Z,2.1
2017-08-08T04:06:20.331Z,1.8
2017-08-08T04:07:01.325Z,0.4
2017-08-08T04:07:42.217Z,0.6
2017-08-08T04:08:23.104Z,2.6
2017-08-08T04:09:04.097Z,1.7
2017-08-08T04:09:45.279Z,0.3
2017-08-08T04:10:26.359Z,0.4
2017-08-08T04:11:07.448Z,0.9
2017-08-08T04:11:48.731Z,0.0
2017-08-08T04:12:29.827Z,0.0
2017-08-08T04:13:10.810Z,0.2
2017-08-08T04:13:51.902Z,2.0
2017-08-08T04:14:33.186Z,0.6
2017-08-08T04:15:14.274Z,0.4
2017-08-08T04:15:55.464Z,0.6
2017-08-08T04:16:36.559Z,1.0
2017-08-08T04:17:17.540Z,1.1
2017-08-08T04:17:58.729Z,1.1
2017-08-08T04:18:39.822Z,0.7
2017-08-08T04:19:20.713Z,0.4
2017-08-08T04:20:01.705Z,0.7
2017-08-08T04:20:42.796Z,0.0
2017-08-08T04:21:23.886Z,0.2
2017-08-08T04:22:04.976Z,0.0
2017-08-08T04:22:45.963Z,1.3
2017-08-08T04:23:27.053Z,0.4
2017-08-08T04:24:08.135Z,0.6
2017-08-08T04:24:49.326Z,0.0
2017-08-08T04:25:30.408Z,0.2
2017-08-08T04:26:11.500Z,1.4
2017-08-08T04:26:52.485Z,0.2
2017-08-08T04:27:33.575Z,0.0
2017-08-08T04:28:15.076Z,0.0
2017-08-08T04:28:56.160Z,1.1
2017-08-08T04:29:37.754Z,1.0
2017-08-08T04:30:18.945Z,0.7
2017-08-08T04:31:00.039Z,0.6
2017-08-08T04:31:41.045Z,1.2
2017-08-08T04:32:22.145Z,0.0
2017-08-08T04:33:03.135Z,0.2
2017-08-08T04:33:44.127Z,0.0
2017-08-08T04:34:25.212Z,0.0
2017-08-08T04:35:06.307Z,0.0
2017-08-08T04:35:47.302Z,0.0
2017-08-08T04:36:28.494Z,0.0
2017-08-08T04:37:09.583Z,0.0
2017-08-08T04:37:50.680Z,0.3
2017-08-08T04:38:31.764Z,0.6
2017-08-08T04:39:12.754Z,2.1
2017-08-08T04:39:53.842Z,1.5
2017-08-08T04:40:34.831Z,3.0
2017-08-08T04:41:15.918Z,1.4
2017-08-08T04:41:57.004Z,2.1
2017-08-08T04:42:38.302Z,1.9
2017-08-08T04:43:19.488Z,1.0
2017-08-08T04:44:00.675Z,0.2
2017-08-08T04:44:41.764Z,1.2
2017-08-08T04:45:22.852Z,1.4
2017-08-08T04:46:03.847Z,1.8
2017-08-08T04:46:44.933Z,0.9
2017-08-08T04:47:25.818Z,0.5
2017-08-08T04:48:06.908Z,2.1
2017-08-08T04:48:48.000Z,2.4
2017-08-08T04:49:28.985Z,1.1
2017-08-08T04:50:10.172Z,0.8
2017-08-08T04:50:51.265Z,2.2
2017-08-08T04:51:32.255Z,1.8
2017-08-08T04:52:13.245Z,0.5
2017-08-08T04:52:54.329Z,1.3
2017-08-08T04:53:35.538Z,0.4
2017-08-08T04:54:16.729Z,1.4
2017-08-08T04:54:57.923Z,0.9
2017-08-08T04:55:38.921Z,1.2
2017-08-08T04:56:20.212Z,1.6
2017-08-08T04:57:01.298Z,3.0
2017-08-08T04:57:42.528Z,0.4
2017-08-08T04:58:23.721Z,1.4
2017-08-08T04:59:04.709Z,2.0
2017-08-08T04:59:45.700Z,1.3
2017-08-08T05:00:26.696Z,2.6
2017-08-08T05:01:07.681Z,1.3
2017-08-08T05:01:48.782Z,0.9
2017-08-08T05:02:29.980Z,0.2
2017-08-08T05:03:10.970Z,1.0
2017-08-08T05:03:52.165Z,0.2
2017-08-08T05:04:33.452Z,0.8
2017-08-08T05:05:14.444Z,0.8
2017-08-08T05:05:55.347Z,0.2
2017-08-08T05:06:37.704Z,1.0
2017-08-08T05:07:18.891Z,1.5
2017-08-08T05:07:59.884Z,1.7
2017-08-08T05:08:41.072Z,2.8
2017-08-08T05:09:22.380Z,1.9
2017-08-08T05:10:03.463Z,4.4
2017-08-08T05:10:44.655Z,1.6
2017-08-08T05:11:25.553Z,2.2
2017-08-08T05:12:06.633Z,2.0
2017-08-08T05:12:47.626Z,1.1
2017-08-08T05:13:28.713Z,0.2
2017-08-08T05:14:09.804Z,1.0
2017-08-08T05:14:50.901Z,0.0
2017-08-08T05:15:31.985Z,0.1
2017-08-08T05:16:12.882Z,1.0
2017-08-08T05:16:53.965Z,1.8
2017-08-08T05:17:35.158Z,1.0
2017-08-08T05:18:16.154Z,0.2
2017-08-08T05:18:57.140Z,0.5
2017-08-08T05:19:38.226Z,0.2
2017-08-08T05:20:19.419Z,0.6
2017-08-08T05:21:00.417Z,0.2
2017-08-08T05:21:41.606Z,0.1
2017-08-08T05:22:22.719Z,0.4
2017-08-08T05:23:03.738Z,0.0
2017-08-08T05:23:44.803Z,0.0
2017-08-08T05:24:25.792Z,1.3
2017-08-08T05:25:06.689Z,0.1
2017-08-08T05:25:47.779Z,1.7
2017-08-08T05:26:28.880Z,1.4
2017-08-08T05:27:09.959Z,1.2
2017-08-08T05:27:51.049Z,0.3
2017-08-08T05:28:32.048Z,0.6
2017-08-08T05:29:13.136Z,1.4
2017-08-08T05:29:54.329Z,1.3
2017-08-08T05:30:35.317Z,1.0
2017-08-08T05:31:16.307Z,1.3
2017-08-08T05:31:57.402Z,0.0
2017-08-08T05:32:38.515Z,0.0
2017-08-08T05:33:19.604Z,0.2
2017-08-08T05:34:00.598Z,1.5
2017-08-08T05:34:41.596Z,1.1
2017-08-08T05:35:22.795Z,0.9
2017-08-08T05:36:04.095Z,1.8
2017-08-08T05:36:45.186Z,1.9
2017-08-08T05:37:26.280Z,1.8
2017-08-08T05:38:07.366Z,0.9
2017-08-08T05:38:48.357Z,1.4
2017-08-08T05:39:29.448Z,1.4
2017-08-08T05:40:10.739Z,0.8
2017-08-08T05:40:51.832Z,1.4
2017-08-08T05:41:32.818Z,0.9
2017-08-08T05:42:13.920Z,1.1
2017-08-08T05:42:55.011Z,0.0
2017-08-08T05:43:35.997Z,0.7
2017-08-08T05:44:17.087Z,1.0
2017-08-08T05:44:58.289Z,1.0
2017-08-08T05:45:39.282Z,0.0
2017-08-08T05:46:20.578Z,0.2
2017-08-08T05:47:01.568Z,1.0
2017-08-08T05:47:42.663Z,0.8
2017-08-08T05:48:23.755Z,0.4
2017-08-08T05:49:04.946Z,1.0
2017-08-08T05:49:46.035Z,0.3
2017-08-08T05:50:27.323Z,0.6
2017-08-08T05:51:08.317Z,0.2
2017-08-08T05:51:49.318Z,1.3
2017-08-08T05:52:30.508Z,0.0
2017-08-08T05:53:11.606Z,0.2
2017-08-08T05:53:52.691Z,0.4
2017-08-08T05:54:33.784Z,1.5
2017-08-08T05:55:14.868Z,1.6
2017-08-08T05:55:55.958Z,0.6
2017-08-08T05:56:37.149Z,0.3
2017-08-08T05:57:18.142Z,1.1
2017-08-08T05:57:59.239Z,0.6
2017-08-08T05:58:42.332Z,0.7
2017-08-08T05:59:23.452Z,0.1
2017-08-08T06:00:04.639Z,0.5
2017-08-08T06:00:45.927Z,2.0
2017-08-08T06:01:26.921Z,1.1
2017-08-08T06:02:08.112Z,0.0
2017-08-08T06:02:49.110Z,0.0
2017-08-08T06:03:30.097Z,1.4
2017-08-08T06:04:11.102Z,0.2
2017-08-08T06:04:52.390Z,0.1
2017-08-08T06:05:33.380Z,0.0
2017-08-08T06:06:14.570Z,0.0
2017-08-08T06:06:55.660Z,0.0
2017-08-08T06:07:36.761Z,1.8
2017-08-08T06:08:17.750Z,1.8
2017-08-08T06:08:58.839Z,1.3
2017-08-08T06:09:40.037Z,0.9
2017-08-08T06:10:21.233Z,0.2
2017-08-08T06:11:02.232Z,0.9
2017-08-08T06:11:43.336Z,0.0
2017-08-08T06:12:24.427Z,0.1
2017-08-08T06:13:05.625Z,0.3
2017-08-08T06:13:46.726Z,0.0
2017-08-08T06:14:27.812Z,1.0
2017-08-08T06:15:08.809Z,0.5
2017-08-08T06:15:49.898Z,0.2
2017-08-08T06:16:30.793Z,0.4
2017-08-08T06:17:11.981Z,0.8
2017-08-08T06:17:53.173Z,0.6
2017-08-08T06:18:34.364Z,0.0
2017-08-08T06:19:15.452Z,1.0
2017-08-08T06:19:56.646Z,1.5
2017-08-08T06:20:37.838Z,0.1
2017-08-08T06:21:18.933Z,0.2
2017-08-08T06:21:59.921Z,0.0
2017-08-08T06:22:40.940Z,0.0
2017-08-08T06:23:22.028Z,0.6
2017-08-08T06:24:03.130Z,0.6
2017-08-08T06:24:44.319Z,0.0
2017-08-08T06:25:25.313Z,1.3
2017-08-08T06:26:06.307Z,1.8
2017-08-08T06:26:47.507Z,1.4
2017-08-08T06:27:28.609Z,1.8
2017-08-08T06:28:09.603Z,3.0
2017-08-08T06:28:50.517Z,1.5
2017-08-08T06:29:31.598Z,1.0
2017-08-08T06:30:12.585Z,3.3
2017-08-08T06:30:53.590Z,1.9
2017-08-08T06:31:34.690Z,2.8
2017-08-08T06:32:15.680Z,3.8
2017-08-08T06:32:56.678Z,1.0
2017-08-08T06:33:37.668Z,1.0
2017-08-08T06:34:18.761Z,0.0
2017-08-08T06:34:59.958Z,1.4
2017-08-08T06:35:41.060Z,2.6
2017-08-08T06:36:22.151Z,2.7
2017-08-08T06:37:03.158Z,2.2
2017-08-08T06:37:44.159Z,1.6
2017-08-08T06:38:25.250Z,2.2
2017-08-08T06:39:06.449Z,2.6
2017-08-08T06:39:47.548Z,1.8
2017-08-08T06:40:28.736Z,3.0
2017-08-08T06:41:09.749Z,4.0
2017-08-08T06:41:50.737Z,0.8
2017-08-08T06:42:31.733Z,3.3
2017-08-08T06:43:12.728Z,2.5
2017-08-08T06:43:53.823Z,1.5
2017-08-08T06:44:34.817Z,1.5
2017-08-08T06:45:15.919Z,1.7
2017-08-08T06:45:56.909Z,1.5
2017-08-08T06:46:37.899Z,3.8
2017-08-08T06:47:19.104Z,1.7
2017-08-08T06:48:00.100Z,1.8
2017-08-08T06:48:41.188Z,1.9
2017-08-08T06:49:22.488Z,1.8
2017-08-08T06:50:03.485Z,1.2
2017-08-08T06:50:44.786Z,2.4
2017-08-08T06:51:25.791Z,0.6
2017-08-08T06:52:06.798Z,2.2
2017-08-08T06:52:47.986Z,0.9
2017-08-08T06:53:28.980Z,0.1
2017-08-08T06:54:10.065Z,0.6
2017-08-08T06:54:51.266Z,4.4
2017-08-08T06:55:32.363Z,0.2
2017-08-08T06:56:13.559Z,2.3
2017-08-08T06:56:54.655Z,1.4
2017-08-08T06:57:35.647Z,0.2
2017-08-08T06:58:16.742Z,0.2
2017-08-08T06:58:57.839Z,1.6
2017-08-08T06:59:38.937Z,2.6
2017-08-08T07:00:20.138Z,1.8
2017-08-08T07:01:01.137Z,1.8
2017-08-08T07:01:42.137Z,1.1
2017-08-08T07:02:23.242Z,1.3
2017-08-08T07:03:04.341Z,1.4
2017-08-08T07:03:45.537Z,0.3
2017-08-08T07:04:26.638Z,1.6
2017-08-08T07:05:07.627Z,3.9
2017-08-08T07:05:48.519Z,1.3
2017-08-08T07:06:29.414Z,1.0
2017-08-08T07:07:10.508Z,2.2
2017-08-08T07:07:51.405Z,1.4
2017-08-08T07:08:32.601Z,1.9
2017-08-08T07:09:13.695Z,1.5
2017-08-08T07:09:54.804Z,2.3
2017-08-08T07:10:35.910Z,1.0
2017-08-08T07:11:16.813Z,0.8
2017-08-08T07:11:58.014Z,4.4
2017-08-08T07:12:39.107Z,3.7
2017-08-08T07:13:20.112Z,1.9
2017-08-08T07:14:01.404Z,2.0
2017-08-08T07:14:42.408Z,4.1
2017-08-08T07:15:23.611Z,3.2
2017-08-08T07:16:04.710Z,3.5
2017-08-08T07:16:45.803Z,1.4
2017-08-08T07:17:26.895Z,1.7
2017-08-08T07:18:07.996Z,0.8
2017-08-08T07:18:48.993Z,0.5
2017-08-08T07:19:29.989Z,0.5
2017-08-08T07:20:10.985Z,1.2
2017-08-08T07:20:52.184Z,1.6
2017-08-08T07:21:33.189Z,1.0
2017-08-08T07:22:14.388Z,1.0
2017-08-08T07:22:55.388Z,1.4
2017-08-08T07:23:36.588Z,1.0
2017-08-08T07:24:17.677Z,0.1
2017-08-08T07:24:58.672Z,2.6
2017-08-08T07:25:39.566Z,1.8
2017-08-08T07:26:20.567Z,1.8
2017-08-08T07:27:01.878Z,1.7
2017-08-08T07:27:42.972Z,1.1
2017-08-08T07:28:23.867Z,1.8
2017-08-08T07:29:05.064Z,3.4
2017-08-08T07:29:45.870Z,0.7
2017-08-08T07:30:26.965Z,2.1
2017-08-08T07:31:08.064Z,3.5
2017-08-08T07:31:49.158Z,1.0
2017-08-08T07:32:30.374Z,2.0
2017-08-08T07:33:11.458Z,1.0
2017-08-08T07:33:52.555Z,1.0
2017-08-08T07:34:33.760Z,2.1
2017-08-08T07:35:14.861Z,2.1
2017-08-08T07:35:56.058Z,2.0
2017-08-08T07:36:36.962Z,0.2
2017-08-08T07:37:17.958Z,2.0
2017-08-08T07:37:58.953Z,4.3
2017-08-08T07:38:40.165Z,3.0
2017-08-08T07:39:21.369Z,1.8
2017-08-08T07:40:02.464Z,1.8
2017-08-08T07:40:43.460Z,1.6
2017-08-08T07:41:24.655Z,2.3
2017-08-08T07:42:05.657Z,2.9
2017-08-08T07:42:46.756Z,4.0
2017-08-08T07:43:27.866Z,4.6
2017-08-08T07:44:08.960Z,1.7
2017-08-08T07:44:49.964Z,0.9
2017-08-08T07:45:30.966Z,3.7
2017-08-08T07:46:12.170Z,2.6
2017-08-08T07:46:53.269Z,2.6
2017-08-08T07:47:34.468Z,1.8
2017-08-08T07:48:15.569Z,1.3
2017-08-08T07:48:56.572Z,1.9
2017-08-08T07:49:37.575Z,2.7
2017-08-08T07:50:18.665Z,0.7
2017-08-08T07:50:59.669Z,2.3
2017-08-08T07:51:40.776Z,2.2
2017-08-08T07:52:21.877Z,1.8
2017-08-08T07:53:03.080Z,2.6
2017-08-08T07:53:44.586Z,2.3
2017-08-08T07:54:25.582Z,1.8
2017-08-08T07:55:06.781Z,1.2
2017-08-08T07:55:47.878Z,0.6
2017-08-08T07:56:29.074Z,1.0
2017-08-08T07:57:10.071Z,1.1
2017-08-08T07:57:51.369Z,0.1
2017-08-08T07:58:32.775Z,2.2
2017-08-08T07:59:13.878Z,1.8
2017-08-08T07:59:56.175Z,1.4
2017-08-08T08:00:37.383Z,2.6
2017-08-08T08:01:18.573Z,2.2
2017-08-08T08:01:59.673Z,2.5
2017-08-08T08:02:40.870Z,2.6
2017-08-08T08:03:21.766Z,2.2
2017-08-08T08:04:02.861Z,2.7
2017-08-08T08:04:43.874Z,0.2
2017-08-08T08:05:25.079Z,2.1
2017-08-08T08:06:09.080Z,4.5
2017-08-08T08:06:50.182Z,2.5
2017-08-08T08:07:31.288Z,2.5
2017-08-08T08:08:12.277Z,2.0
2017-08-08T08:08:53.281Z,1.0
2017-08-08T08:09:34.380Z,2.6
2017-08-08T08:10:15.379Z,1.9
2017-08-08T08:10:56.472Z,3.9
2017-08-08T08:11:37.566Z,2.2
2017-08-08T08:12:18.571Z,1.4
2017-08-08T08:12:59.665Z,2.2
2017-08-08T08:13:40.982Z,2.9
2017-08-08T08:14:22.080Z,4.3
2017-08-08T08:15:03.178Z,4.3
2017-08-08T08:15:44.617Z,2.4
2017-08-08T08:16:25.613Z,2.2
2017-08-08T08:17:06.710Z,2.3
2017-08-08T08:17:47.915Z,1.1
2017-08-08T08:18:29.011Z,0.3
2017-08-08T08:19:10.105Z,2.0
2017-08-08T08:19:51.206Z,5.5
2017-08-08T08:20:32.304Z,2.8
2017-08-08T08:21:13.495Z,1.9
2017-08-08T08:21:54.594Z,1.3
2017-08-08T08:22:35.692Z,1.6
2017-08-08T08:23:16.787Z,1.6
2017-08-08T08:23:57.777Z,0.5
2017-08-08T08:24:38.779Z,0.7
2017-08-08T08:25:19.671Z,1.4
2017-08-08T08:26:00.774Z,1.0
2017-08-08T08:26:41.764Z,1.0
2017-08-08T08:27:23.062Z,0.6
2017-08-08T08:28:04.181Z,2.8
2017-08-08T08:28:45.273Z,1.8
2017-08-08T08:29:26.671Z,2.6
2017-08-08T08:30:07.669Z,0.6
2017-08-08T08:30:48.963Z,1.8
2017-08-08T08:31:30.065Z,1.6
2017-08-08T08:32:11.155Z,1.0
2017-08-08T08:32:52.350Z,1.0
2017-08-08T08:33:33.351Z,2.9
2017-08-08T08:34:14.466Z,2.0
2017-08-08T08:34:55.464Z,2.8
2017-08-08T08:35:36.762Z,1.3
2017-08-08T08:36:17.858Z,0.8
2017-08-08T08:36:59.147Z,1.8
2017-08-08T08:37:40.243Z,0.2
2017-08-08T08:38:21.338Z,1.9
2017-08-08T08:39:02.436Z,1.7
2017-08-08T08:39:43.540Z,0.7
2017-08-08T08:40:24.943Z,2.2
2017-08-08T08:41:06.160Z,2.2
2017-08-08T08:41:47.258Z,1.7
2017-08-08T08:42:28.260Z,2.8
2017-08-08T08:43:09.451Z,2.8
2017-08-08T08:43:50.646Z,1.0
2017-08-08T08:44:31.865Z,1.8
2017-08-08T08:45:12.851Z,0.4
2017-08-08T08:45:53.941Z,2.0
2017-08-08T08:46:35.133Z,2.6
2017-08-08T08:47:16.226Z,2.2
2017-08-08T08:47:57.331Z,3.8
2017-08-08T08:48:38.346Z,1.0
2017-08-08T08:49:19.439Z,2.8
2017-08-08T08:50:00.645Z,2.3
2017-08-08T08:50:41.641Z,2.2
2017-08-08T08:51:22.834Z,0.8
2017-08-08T08:52:03.933Z,1.1
2017-08-08T08:52:44.944Z,1.0
2017-08-08T08:53:26.044Z,1.4
2017-08-08T08:54:07.138Z,0.2
2017-08-08T08:54:48.133Z,1.1
2017-08-08T08:55:29.233Z,2.1
2017-08-08T08:56:10.234Z,0.6
2017-08-08T08:56:51.358Z,0.2
2017-08-08T08:57:32.445Z,1.0
2017-08-08T08:58:13.535Z,1.0
2017-08-08T08:58:54.827Z,0.9
2017-08-08T08:59:35.921Z,0.2
2017-08-08T09:00:16.920Z,1.0
2017-08-08T09:00:58.009Z,1.2
2017-08-08T09:01:39.009Z,0.6
2017-08-08T09:02:20.113Z,2.1
2017-08-08T09:03:01.215Z,1.0
2017-08-08T09:03:42.274Z,1.0
2017-08-08T09:04:23.472Z,2.7
2017-08-08T09:05:04.470Z,1.6
2017-08-08T09:05:45.463Z,0.6
2017-08-08T09:06:26.459Z,0.2
2017-08-08T09:07:07.553Z,0.4
2017-08-08T09:07:48.665Z,0.3
2017-08-08T09:08:29.861Z,0.6
2017-08-08T09:09:10.963Z,1.0
2017-08-08T09:09:52.067Z,1.8
2017-08-08T09:10:33.166Z,1.3
2017-08-08T09:11:14.263Z,1.3
2017-08-08T09:11:55.358Z,0.4
2017-08-08T09:12:36.255Z,1.1
2017-08-08T09:13:17.247Z,0.6
2017-08-08T09:13:58.239Z,0.4
2017-08-08T09:14:39.245Z,1.4
2017-08-08T09:15:20.339Z,2.8
2017-08-08T09:16:01.441Z,2.2
2017-08-08T09:16:42.435Z,0.7
2017-08-08T09:17:23.334Z,0.6
2017-08-08T09:18:04.434Z,0.9
2017-08-08T09:18:45.425Z,0.9
2017-08-08T09:19:26.522Z,1.4
2017-08-08T09:20:07.518Z,0.9
2017-08-08T09:20:48.518Z,0.5
2017-08-08T09:21:29.616Z,1.7
2017-08-08T09:22:10.722Z,0.0
2017-08-08T09:22:51.818Z,0.6
2017-08-08T09:23:32.918Z,0.3
2017-08-08T09:24:14.024Z,2.2
2017-08-08T09:24:55.214Z,1.4
2017-08-08T09:25:36.214Z,0.0
2017-08-08T09:26:17.307Z,0.7